createdAt,value
2022-10-13T00:00:04.140Z,101809.75
2022-10-13T00:02:35.707Z,101801.88
2022-10-13T00:05:00.673Z,101808.22
2022-10-13T00:07:24.221Z,101803.69
2022-10-13T00:09:47.825Z,101807.28
2022-10-13T00:12:11.390Z,101801.25
2022-10-13T00:14:35.023Z,101797.75
2022-10-13T00:16:58.559Z,101797.75
2022-10-13T00:19:22.125Z,101787.28
2022-10-13T00:21:47.050Z,101785.63
2022-10-13T00:24:12.706Z,101783.88
2022-10-13T00:26:36.265Z,101786.56
2022-10-13T00:29:03.872Z,101792.81
2022-10-13T00:31:30.112Z,101787.47
2022-10-13T00:33:53.993Z,101784.00
2022-10-13T00:36:18.715Z,101787.63
2022-10-13T00:38:43.803Z,101788.56
2022-10-13T00:41:08.379Z,101782.50
2022-10-13T00:43:53.519Z,101775.63
2022-10-13T00:46:17.322Z,101779.09
2022-10-13T00:48:43.327Z,101780.88
2022-10-13T00:51:07.426Z,101781.69
2022-10-13T00:53:36.271Z,101781.63
2022-10-13T00:56:02.089Z,101776.63
2022-10-13T00:58:31.318Z,101780.28
2022-10-13T01:00:55.285Z,101778.75
2022-10-13T01:03:21.125Z,101781.50
2022-10-13T01:05:45.011Z,101774.91
2022-10-13T01:08:09.491Z,101776.91
2022-10-13T01:10:47.155Z,101770.97
2022-10-13T01:13:19.383Z,101778.03
2022-10-13T01:15:53.059Z,101775.47
2022-10-13T01:18:24.616Z,101775.44
2022-10-13T01:21:10.375Z,101773.53
2022-10-13T01:24:18.630Z,101779.22
2022-10-13T01:27:49.626Z,101769.00
2022-10-13T01:30:19.762Z,101765.81
2022-10-13T01:33:18.416Z,101761.81
2022-10-13T01:35:58.294Z,101761.03
2022-10-13T01:38:34.611Z,101772.66
2022-10-13T01:41:10.671Z,101758.34
2022-10-13T01:43:39.586Z,101750.50
2022-10-13T01:46:09.497Z,101750.41
2022-10-13T01:48:34.292Z,101748.56
2022-10-13T01:51:00.207Z,101752.22
2022-10-13T01:53:24.492Z,101745.22
2022-10-13T01:55:55.455Z,101736.38
2022-10-13T01:58:19.094Z,101740.22
2022-10-13T02:00:51.250Z,101742.03
2022-10-13T02:03:25.141Z,101738.50
2022-10-13T02:05:55.183Z,101729.81
2022-10-13T02:08:26.963Z,101724.38
2022-10-13T02:11:00.486Z,101721.91
2022-10-13T02:13:29.063Z,101726.50
2022-10-13T02:15:56.720Z,101718.25
2022-10-13T02:18:25.264Z,101720.09
2022-10-13T02:20:49.671Z,101715.84
2022-10-13T02:23:17.071Z,101716.53
2022-10-13T02:25:41.963Z,101725.50
2022-10-13T02:28:06.787Z,101720.28
2022-10-13T02:30:42.175Z,101712.13
2022-10-13T02:33:05.743Z,101706.06
2022-10-13T02:35:32.858Z,101701.72
2022-10-13T02:37:57.487Z,101706.94
2022-10-13T02:40:21.060Z,101698.97
2022-10-13T02:42:44.679Z,101692.91
2022-10-13T02:45:10.398Z,101699.00
2022-10-13T02:47:33.983Z,101691.28
2022-10-13T02:50:00.601Z,101686.03
2022-10-13T02:52:25.730Z,101686.88
2022-10-13T02:54:49.271Z,101678.78
2022-10-13T02:57:12.878Z,101682.50
2022-10-13T02:59:40.235Z,101683.38
2022-10-13T03:02:03.852Z,101680.03
2022-10-13T03:04:28.472Z,101685.22
2022-10-13T03:06:55.979Z,101682.56
2022-10-13T03:09:20.916Z,101684.38
2022-10-13T03:11:44.569Z,101681.50
2022-10-13T03:14:08.110Z,101672.09
2022-10-13T03:16:31.709Z,101678.31
2022-10-13T03:18:55.311Z,101674.84
2022-10-13T03:21:18.898Z,101678.03
2022-10-13T03:23:42.532Z,101672.84
2022-10-13T03:26:07.691Z,101681.56
2022-10-13T03:28:31.475Z,101683.47
2022-10-13T03:31:02.502Z,101680.03
2022-10-13T03:33:26.172Z,101675.50
2022-10-13T03:35:53.355Z,101673.84
2022-10-13T03:38:16.940Z,101672.72
2022-10-13T03:40:40.491Z,101668.25
2022-10-13T03:43:05.504Z,101669.88
2022-10-13T03:45:31.361Z,101666.13
2022-10-13T03:47:54.928Z,101664.94
2022-10-13T03:50:19.257Z,101665.66
2022-10-13T03:52:42.831Z,101656.72
2022-10-13T03:55:07.584Z,101661.81
2022-10-13T03:57:31.443Z,101651.97
2022-10-13T03:59:57.620Z,101652.50
2022-10-13T04:02:23.602Z,101647.81
2022-10-13T04:04:48.595Z,101651.19
2022-10-13T04:07:12.474Z,101643.91
2022-10-13T04:09:36.143Z,101645.69
2022-10-13T04:11:59.753Z,101649.69
2022-10-13T04:14:23.647Z,101640.59
2022-10-13T04:16:48.999Z,101639.38
2022-10-13T04:19:14.803Z,101637.44
2022-10-13T04:21:38.503Z,101649.63
2022-10-13T04:24:03.138Z,101643.16
2022-10-13T04:26:29.415Z,101643.69
2022-10-13T04:28:56.831Z,101642.06
2022-10-13T04:31:22.100Z,101641.75
2022-10-13T04:33:47.198Z,101638.44
2022-10-13T04:36:13.403Z,101635.31
2022-10-13T04:38:36.998Z,101637.97
2022-10-13T04:41:00.699Z,101631.38
2022-10-13T04:43:24.923Z,101627.69
2022-10-13T04:45:49.154Z,101628.50
2022-10-13T04:48:12.681Z,101623.56
2022-10-13T04:50:37.728Z,101627.09
2022-10-13T04:53:01.373Z,101625.00
2022-10-13T04:55:24.988Z,101614.84
2022-10-13T04:57:48.501Z,101616.13
2022-10-13T05:00:13.774Z,101619.59
2022-10-13T05:02:37.739Z,101610.25
2022-10-13T05:05:01.354Z,101618.22
2022-10-13T05:07:26.371Z,101627.69
2022-10-13T05:09:49.948Z,101619.63
2022-10-13T05:12:13.639Z,101621.06
2022-10-13T05:14:37.310Z,101624.78
2022-10-13T05:17:04.322Z,101619.94
2022-10-13T05:19:28.185Z,101612.34
2022-10-13T05:21:52.734Z,101615.41
2022-10-13T05:24:17.790Z,101612.50
2022-10-13T05:26:44.055Z,101613.06
2022-10-13T05:29:07.852Z,101614.31
2022-10-13T05:31:33.715Z,101604.09
2022-10-13T05:33:58.360Z,101596.03
2022-10-13T05:36:25.045Z,101608.13
2022-10-13T05:38:52.958Z,101599.34
2022-10-13T05:41:17.939Z,101612.28
2022-10-13T05:43:43.274Z,101602.38
2022-10-13T05:46:08.079Z,101598.69
2022-10-13T05:48:33.083Z,101600.19
2022-10-13T05:50:59.254Z,101600.81
2022-10-13T05:53:25.441Z,101599.06
2022-10-13T05:55:49.644Z,101601.03
2022-10-13T05:58:14.843Z,101597.84
2022-10-13T06:00:38.487Z,101599.47
2022-10-13T06:03:08.434Z,101601.91
2022-10-13T06:05:33.861Z,101601.81
2022-10-13T06:07:58.181Z,101610.63
2022-10-13T06:10:22.101Z,101596.25
2022-10-13T06:12:45.764Z,101610.25
2022-10-13T06:15:12.188Z,101598.53
2022-10-13T06:17:38.419Z,101601.28
2022-10-13T06:20:01.943Z,101595.94
2022-10-13T06:22:25.591Z,101604.97
2022-10-13T06:24:49.315Z,101603.72
2022-10-13T06:27:13.433Z,101602.69
2022-10-13T06:29:37.198Z,101598.97
2022-10-13T06:32:02.131Z,101601.28
2022-10-13T06:34:25.757Z,101601.28
2022-10-13T06:36:49.296Z,101596.06
2022-10-13T06:39:12.879Z,101602.84
2022-10-13T06:41:36.528Z,101593.88
2022-10-13T06:44:00.086Z,101595.63
2022-10-13T06:46:26.061Z,101600.72
2022-10-13T06:48:52.795Z,101597.94
2022-10-13T06:51:16.972Z,101599.22
2022-10-13T06:53:41.383Z,101605.63
2022-10-13T06:56:08.288Z,101601.06
2022-10-13T06:58:32.042Z,101600.84
2022-10-13T07:00:56.245Z,101598.94
2022-10-13T07:03:19.951Z,101599.78
2022-10-13T07:05:44.952Z,101594.81
2022-10-13T07:08:08.484Z,101593.13
2022-10-13T07:10:32.023Z,101592.06
2022-10-13T07:12:55.569Z,101594.00
2022-10-13T07:15:20.329Z,101583.28
2022-10-13T07:17:46.292Z,101576.88
2022-10-13T07:20:11.191Z,101571.78
2022-10-13T07:22:36.191Z,101567.44
2022-10-13T07:24:59.789Z,101581.00
2022-10-13T07:27:23.961Z,101571.38
2022-10-13T07:29:47.768Z,101570.25
2022-10-13T07:32:11.365Z,101568.00
2022-10-13T07:34:35.156Z,101569.34
2022-10-13T07:36:58.762Z,101557.50
2022-10-13T07:39:23.710Z,101559.50
2022-10-13T07:41:50.887Z,101557.00
2022-10-13T07:44:14.735Z,101553.63
2022-10-13T07:46:38.329Z,101563.81
2022-10-13T07:49:01.959Z,101564.31
2022-10-13T07:51:26.036Z,101567.97
2022-10-13T07:53:50.798Z,101563.03
2022-10-13T07:56:17.486Z,101562.50
2022-10-13T07:58:44.529Z,101568.41
2022-10-13T08:01:09.284Z,101570.47
2022-10-13T08:06:06.889Z,101565.91
2022-10-13T08:08:31.276Z,101568.09
2022-10-13T08:10:55.720Z,101553.22
2022-10-13T08:13:21.990Z,101551.34
2022-10-13T08:15:46.686Z,101545.94
2022-10-13T08:18:10.909Z,101542.78
2022-10-13T08:20:41.114Z,101544.53
2022-10-13T08:23:05.064Z,101543.31
2022-10-13T08:25:28.795Z,101533.22
2022-10-13T08:27:54.720Z,101524.03
2022-10-13T08:30:23.605Z,101532.19
2022-10-13T08:32:47.470Z,101535.00
2022-10-13T08:35:11.801Z,101529.00
2022-10-13T08:37:35.336Z,101530.13
2022-10-13T08:39:58.885Z,101530.44
2022-10-13T08:42:23.734Z,101533.41
2022-10-13T08:45:35.795Z,101530.34
2022-10-13T08:47:43.586Z,101526.63
2022-10-13T08:50:15.174Z,101526.28
2022-10-13T08:52:54.328Z,101521.34
2022-10-13T08:55:32.977Z,101520.31
2022-10-13T08:57:56.648Z,101518.13
2022-10-13T09:00:22.926Z,101506.72
2022-10-13T09:02:48.339Z,101513.72
2022-10-13T09:05:21.008Z,101506.66
2022-10-13T09:07:47.654Z,101510.78
2022-10-13T09:10:12.192Z,101506.59
2022-10-13T09:12:35.769Z,101508.34
2022-10-13T09:15:01.564Z,101508.50
2022-10-13T09:17:27.430Z,101502.94
2022-10-13T09:20:02.887Z,101506.13
2022-10-13T09:22:28.751Z,101505.16
2022-10-13T09:25:12.086Z,101504.06
2022-10-13T09:27:44.848Z,101507.09
2022-10-13T09:30:32.594Z,101505.25
2022-10-13T09:33:25.079Z,101505.00
2022-10-13T09:36:07.955Z,101505.00
2022-10-13T09:38:31.579Z,101513.78
2022-10-13T09:41:03.841Z,101511.63
2022-10-13T09:43:33.546Z,101506.09
2022-10-13T09:45:57.514Z,101502.75
2022-10-13T09:48:25.931Z,101511.22
2022-10-13T09:50:53.746Z,101509.38
2022-10-13T09:53:32.257Z,101508.63
2022-10-13T09:56:11.987Z,101514.59
2022-10-13T09:58:38.130Z,101509.38
2022-10-13T10:01:01.784Z,101512.69
2022-10-13T10:03:29.135Z,101509.03
2022-10-13T10:05:56.286Z,101513.13
2022-10-13T10:08:33.854Z,101508.00
2022-10-13T10:11:06.223Z,101509.38
2022-10-13T10:13:29.884Z,101496.09
2022-10-13T10:15:59.683Z,101508.00
2022-10-13T10:18:33.461Z,101496.78
2022-10-13T10:21:07.622Z,101497.16
2022-10-13T10:23:44.364Z,101495.53
2022-10-13T10:26:23.211Z,101486.13
2022-10-13T10:29:11.954Z,101479.84
2022-10-13T10:31:51.796Z,101474.72
2022-10-13T10:34:36.760Z,101474.97
2022-10-13T10:37:22.779Z,101475.34
2022-10-13T10:39:52.387Z,101474.31
2022-10-13T10:42:42.484Z,101465.31
2022-10-13T10:45:18.931Z,101464.97
2022-10-13T10:47:47.423Z,101459.13
2022-10-13T10:50:17.617Z,101454.00
2022-10-13T10:52:54.371Z,101460.72
2022-10-13T10:55:25.272Z,101449.88
2022-10-13T10:58:01.922Z,101448.13
2022-10-13T11:03:04.113Z,101446.50
2022-10-13T11:05:32.888Z,101442.91
2022-10-13T11:08:00.130Z,101431.88
2022-10-13T11:10:26.414Z,101428.28
2022-10-13T11:13:19.347Z,101424.69
2022-10-13T11:15:46.413Z,101431.41
2022-10-13T11:19:10.299Z,101430.97
2022-10-13T11:22:21.163Z,101432.34
2022-10-13T11:25:01.206Z,101432.44
2022-10-13T11:27:40.028Z,101429.53
2022-10-13T11:30:04.751Z,101435.38
2022-10-13T11:32:56.367Z,101427.97
2022-10-13T11:35:25.319Z,101426.19
2022-10-13T11:38:09.241Z,101422.41
2022-10-13T11:40:40.987Z,101412.06
2022-10-13T11:43:22.476Z,101405.63
2022-10-13T11:46:28.371Z,101405.91
2022-10-13T11:49:43.955Z,101397.94
2022-10-13T11:52:32.158Z,101391.41
2022-10-13T11:55:03.163Z,101382.56
2022-10-13T11:57:32.799Z,101385.97
2022-10-13T11:59:58.690Z,101372.31
2022-10-13T12:02:37.560Z,101376.00
2022-10-13T12:05:05.119Z,101373.41
2022-10-13T12:07:37.674Z,101372.34
2022-10-13T12:10:01.700Z,101367.72
2022-10-13T12:12:27.759Z,101367.47
2022-10-13T12:14:53.296Z,101362.38
2022-10-13T12:17:25.566Z,101380.56
2022-10-13T12:19:49.591Z,101375.78
2022-10-13T12:22:14.874Z,101376.78
2022-10-13T12:24:38.740Z,101374.94
2022-10-13T12:27:12.988Z,101373.97
2022-10-13T12:29:41.780Z,101364.00
2022-10-13T12:32:18.221Z,101373.34
2022-10-13T12:34:41.808Z,101375.66
2022-10-13T12:37:16.391Z,101371.16
2022-10-13T12:39:40.727Z,101368.50
2022-10-13T12:42:08.111Z,101373.41
2022-10-13T12:44:35.012Z,101373.59
2022-10-13T12:47:02.316Z,101370.69
2022-10-13T12:49:29.041Z,101375.47
2022-10-13T12:51:55.790Z,101376.75
2022-10-13T12:54:24.007Z,101376.59
2022-10-13T12:56:50.215Z,101369.00
2022-10-13T12:59:18.866Z,101369.22
2022-10-13T13:01:44.935Z,101382.09
2022-10-13T13:04:32.098Z,101376.59
2022-10-13T13:06:58.615Z,101380.47
2022-10-13T13:09:26.923Z,101371.63
2022-10-13T13:12:30.415Z,101372.78
2022-10-13T13:14:55.986Z,101367.44
2022-10-13T13:17:52.810Z,101372.69
2022-10-13T13:20:26.328Z,101366.44
2022-10-13T13:22:50.758Z,101371.38
2022-10-13T13:25:14.486Z,101371.66
2022-10-13T13:27:41.036Z,101367.59
2022-10-13T13:30:05.167Z,101360.88
2022-10-13T13:32:30.992Z,101368.78
2022-10-13T13:34:54.859Z,101353.13
2022-10-13T13:37:31.040Z,101358.97
2022-10-13T13:39:55.079Z,101353.09
2022-10-13T13:42:18.851Z,101342.91
2022-10-13T13:44:44.451Z,101338.63
2022-10-13T13:47:17.442Z,101335.78
2022-10-13T13:49:42.324Z,101329.97
2022-10-13T13:52:06.456Z,101324.78
2022-10-13T13:54:31.407Z,101326.19
2022-10-13T13:56:58.793Z,101323.72
2022-10-13T13:59:23.327Z,101326.53
2022-10-13T14:01:49.589Z,101327.50
2022-10-13T14:04:18.667Z,101323.34
2022-10-13T14:06:42.252Z,101324.69
2022-10-13T14:09:06.409Z,101312.69
2022-10-13T14:11:31.335Z,101321.03
2022-10-13T14:13:54.947Z,101311.47
2022-10-13T14:16:23.991Z,101308.91
2022-10-13T14:18:48.003Z,101304.78
2022-10-13T14:21:11.579Z,101304.78
2022-10-13T14:23:35.163Z,101299.53
2022-10-13T14:25:58.652Z,101297.69
2022-10-13T14:28:23.788Z,101304.34
2022-10-13T14:30:47.316Z,101305.34
2022-10-13T14:33:11.231Z,101300.56
2022-10-13T14:35:34.767Z,101300.97
2022-10-13T14:38:00.860Z,101294.06
2022-10-13T14:40:24.547Z,101298.19
2022-10-13T14:42:48.121Z,101298.28
2022-10-13T14:45:15.765Z,101294.78
2022-10-13T14:47:39.326Z,101303.00
2022-10-13T14:50:03.301Z,101294.47
2022-10-13T14:52:26.895Z,101293.56
2022-10-13T14:54:50.689Z,101293.84
2022-10-13T14:57:16.469Z,101290.78
2022-10-13T14:59:39.978Z,101293.06
2022-10-13T15:02:04.995Z,101293.13
2022-10-13T15:04:29.448Z,101285.97
2022-10-13T15:06:54.202Z,101284.81
2022-10-13T15:09:17.956Z,101290.97
2022-10-13T15:11:41.580Z,101286.84
2022-10-13T15:14:05.758Z,101279.06
2022-10-13T15:16:33.345Z,101288.50
2022-10-13T15:18:58.315Z,101284.31
2022-10-13T15:21:22.346Z,101290.03
2022-10-13T15:23:46.739Z,101287.09
2022-10-13T15:26:13.175Z,101296.25
2022-10-13T15:28:40.017Z,101301.97
2022-10-13T15:31:07.529Z,101305.81
2022-10-13T15:33:31.108Z,101305.59
2022-10-13T15:35:56.370Z,101308.16
2022-10-13T15:38:21.867Z,101303.97
2022-10-13T15:40:45.816Z,101304.28
2022-10-13T15:43:09.434Z,101306.00
2022-10-13T15:45:33.144Z,101302.34
2022-10-13T15:47:57.710Z,101302.00
2022-10-13T15:50:21.366Z,101300.56
2022-10-13T15:52:46.632Z,101303.66
2022-10-13T15:55:12.075Z,101299.75
2022-10-13T15:57:35.586Z,101297.50
2022-10-13T15:59:59.207Z,101298.72
2022-10-13T16:02:23.583Z,101300.31
2022-10-13T16:04:47.438Z,101298.63
2022-10-13T16:07:10.975Z,101302.38
2022-10-13T16:09:35.988Z,101298.69
2022-10-13T16:11:59.517Z,101296.44
2022-10-13T16:14:23.198Z,101294.50
2022-10-13T16:16:46.775Z,101301.34
2022-10-13T16:19:10.331Z,101293.03
2022-10-13T16:21:33.972Z,101300.75
2022-10-13T16:24:01.371Z,101305.03
2022-10-13T16:26:26.279Z,101294.06
2022-10-13T16:28:49.963Z,101297.22
2022-10-13T16:31:15.728Z,101300.34
2022-10-13T16:33:39.902Z,101298.78
2022-10-13T16:36:04.596Z,101298.91
2022-10-13T16:38:28.344Z,101296.94
2022-10-13T16:40:51.835Z,101297.34
2022-10-13T16:43:16.928Z,101297.91
2022-10-13T16:46:00.053Z,101295.47
2022-10-13T16:48:24.104Z,101300.44
2022-10-13T16:50:47.813Z,101298.41
2022-10-13T16:53:11.517Z,101293.31
2022-10-13T16:55:35.167Z,101285.88
2022-10-13T16:57:58.723Z,101293.81
2022-10-13T17:00:24.002Z,101295.78
2022-10-13T17:02:47.757Z,101301.44
2022-10-13T17:05:11.480Z,101293.31
2022-10-13T17:07:35.213Z,101290.72
2022-10-13T17:09:58.827Z,101291.28
2022-10-13T17:12:22.519Z,101298.06
2022-10-13T17:14:46.012Z,101294.34
2022-10-13T17:17:11.395Z,101290.22
2022-10-13T17:19:36.087Z,101286.94
2022-10-13T17:21:59.909Z,101278.63
2022-10-13T17:24:23.591Z,101284.44
2022-10-13T17:26:47.219Z,101285.72
2022-10-13T17:29:10.767Z,101289.41
2022-10-13T17:31:34.480Z,101283.56
2022-10-13T17:34:00.718Z,101290.31
2022-10-13T17:36:27.202Z,101292.44
2022-10-13T17:38:51.644Z,101297.81
2022-10-13T17:41:15.832Z,101291.25
2022-10-13T17:43:45.454Z,101292.47
2022-10-13T17:46:35.138Z,101294.13
2022-10-13T17:48:58.395Z,101299.44
2022-10-13T17:51:22.224Z,101292.09
2022-10-13T17:53:46.704Z,101296.13
2022-10-13T17:56:15.018Z,101288.56
2022-10-13T17:58:39.584Z,101285.72
2022-10-13T18:01:13.320Z,101273.75
2022-10-13T18:03:39.127Z,101284.06
2022-10-13T18:06:04.592Z,101283.97
2022-10-13T18:08:28.191Z,101277.25
2022-10-13T18:11:08.456Z,101281.66
2022-10-13T18:13:32.422Z,101275.94
2022-10-13T18:15:56.059Z,101275.44
2022-10-13T18:18:19.679Z,101268.47
2022-10-13T18:20:43.220Z,101270.91
2022-10-13T18:23:08.242Z,101272.28
2022-10-13T18:25:36.847Z,101270.81
2022-10-13T18:28:00.474Z,101269.22
2022-10-13T18:30:24.034Z,101272.88
2022-10-13T18:32:47.641Z,101265.53
2022-10-13T18:35:11.435Z,101266.91
2022-10-13T18:37:35.085Z,101276.06
2022-10-13T18:40:00.086Z,101273.50
2022-10-13T18:42:23.779Z,101279.25
2022-10-13T18:44:47.348Z,101271.53
2022-10-13T18:47:10.911Z,101272.91
2022-10-13T18:49:34.563Z,101273.13
2022-10-13T18:51:59.468Z,101276.31
2022-10-13T18:54:23.043Z,101269.22
2022-10-13T18:56:48.134Z,101270.44
2022-10-13T18:59:12.767Z,101257.06
2022-10-13T19:01:39.029Z,101265.78
2022-10-13T19:04:02.728Z,101261.59
2022-10-13T19:06:28.219Z,101259.78
2022-10-13T19:08:51.823Z,101259.91
2022-10-13T19:11:17.952Z,101266.69
2022-10-13T19:13:43.135Z,101259.84
2022-10-13T19:16:08.170Z,101261.31
2022-10-13T19:18:31.708Z,101258.31
2022-10-13T19:20:55.375Z,101262.09
2022-10-13T19:23:19.073Z,101264.91
2022-10-13T19:25:43.610Z,101271.00
2022-10-13T19:28:07.664Z,101271.75
2022-10-13T19:30:32.622Z,101268.31
2022-10-13T19:32:56.143Z,101266.94
2022-10-13T19:35:19.874Z,101261.78
2022-10-13T19:37:43.488Z,101266.94
2022-10-13T19:40:09.735Z,101262.88
2022-10-13T19:42:33.819Z,101261.41
2022-10-13T19:44:58.361Z,101257.75
2022-10-13T19:47:23.540Z,101260.66
2022-10-13T19:49:47.374Z,101264.66
2022-10-13T19:52:10.960Z,101263.19
2022-10-13T19:54:37.162Z,101258.00
2022-10-13T19:57:00.752Z,101266.00
2022-10-13T19:59:24.307Z,101267.16
2022-10-13T20:01:48.037Z,101264.94
2022-10-13T20:04:14.250Z,101264.94
2022-10-13T20:06:40.318Z,101263.47
2022-10-13T20:09:04.645Z,101259.16
2022-10-13T20:11:28.595Z,101258.31
2022-10-13T20:13:52.869Z,101257.81
2022-10-13T20:16:18.743Z,101259.94
2022-10-13T20:18:42.736Z,101260.41
2022-10-13T20:21:10.059Z,101263.56
2022-10-13T20:23:34.564Z,101259.16
2022-10-13T20:25:58.091Z,101262.91
2022-10-13T20:28:25.123Z,101257.88
2022-10-13T20:30:48.751Z,101260.16
2022-10-13T20:33:12.815Z,101260.50
2022-10-13T20:35:36.354Z,101259.00
2022-10-13T20:38:01.319Z,101261.56
2022-10-13T20:40:25.083Z,101268.34
2022-10-13T20:42:52.046Z,101257.09
2022-10-13T20:45:17.206Z,101258.38
2022-10-13T20:47:40.912Z,101257.84
2022-10-13T20:50:08.476Z,101259.06
2022-10-13T20:52:32.964Z,101256.38
2022-10-13T20:54:57.856Z,101257.78
2022-10-13T20:57:22.326Z,101255.81
2022-10-13T20:59:47.148Z,101256.06
2022-10-13T21:02:14.112Z,101259.16
2022-10-13T21:04:37.651Z,101253.91
2022-10-13T21:07:01.183Z,101263.03
2022-10-13T21:09:24.806Z,101263.22
2022-10-13T21:11:49.863Z,101263.66
2022-10-13T21:14:13.438Z,101262.94
2022-10-13T21:16:37.674Z,101258.28
2022-10-13T21:19:05.844Z,101259.38
2022-10-13T21:21:32.896Z,101261.41
2022-10-13T21:23:59.058Z,101252.59
2022-10-13T21:26:23.808Z,101259.94
2022-10-13T21:28:49.001Z,101260.00
2022-10-13T21:31:15.607Z,101251.22
2022-10-13T21:33:41.327Z,101248.19
2022-10-13T21:36:08.395Z,101260.25
2022-10-13T21:38:31.934Z,101252.91
2022-10-13T21:40:55.559Z,101252.84
2022-10-13T21:43:19.070Z,101249.50
2022-10-13T21:45:44.027Z,101253.16
2022-10-13T21:48:08.224Z,101253.78
2022-10-13T21:50:32.127Z,101253.03
2022-10-13T21:52:55.630Z,101256.47
2022-10-13T21:55:22.313Z,101253.78
2022-10-13T21:57:47.247Z,101252.06
2022-10-13T22:00:12.503Z,101252.84
2022-10-13T22:02:37.575Z,101253.16
2022-10-13T22:05:01.157Z,101254.97
2022-10-13T22:07:24.710Z,101258.53
2022-10-13T22:09:48.327Z,101258.53
2022-10-13T22:12:11.875Z,101263.88
2022-10-13T22:14:35.445Z,101258.72
2022-10-13T22:16:58.992Z,101258.94
2022-10-13T22:19:24.355Z,101259.78
2022-10-13T22:21:49.922Z,101261.41
2022-10-13T22:24:16.375Z,101255.19
2022-10-13T22:26:42.214Z,101252.78
2022-10-13T22:29:08.000Z,101256.91
2022-10-13T22:31:33.296Z,101253.97
2022-10-13T22:34:03.320Z,101258.59
2022-10-13T22:36:30.842Z,101251.63
2022-10-13T22:38:57.634Z,101249.66
2022-10-13T22:41:22.325Z,101247.09
2022-10-13T22:43:47.914Z,101242.56
2022-10-13T22:46:12.314Z,101248.38
2022-10-13T22:48:40.585Z,101251.81
2022-10-13T22:51:06.060Z,101246.44
2022-10-13T22:53:31.445Z,101244.53
2022-10-13T22:55:55.015Z,101246.00
2022-10-13T22:58:18.567Z,101242.47
2022-10-13T23:00:43.063Z,101238.28
2022-10-13T23:03:07.617Z,101238.06
2022-10-13T23:05:31.319Z,101235.63
2022-10-13T23:07:55.079Z,101238.19
2022-10-13T23:10:20.118Z,101234.44
2022-10-13T23:12:43.646Z,101225.63
2022-10-13T23:15:09.115Z,101232.50
2022-10-13T23:17:32.676Z,101237.94
2022-10-13T23:19:56.331Z,101241.50
2022-10-13T23:22:19.876Z,101235.50
2022-10-13T23:24:43.629Z,101229.50
2022-10-13T23:27:08.536Z,101235.72
2022-10-13T23:29:32.103Z,101234.00
2022-10-13T23:31:55.644Z,101227.78
2022-10-13T23:34:19.279Z,101227.78
2022-10-13T23:36:42.787Z,101225.19
2022-10-13T23:39:08.087Z,101221.25
2022-10-13T23:41:32.369Z,101222.44
2022-10-13T23:43:57.643Z,101220.25
2022-10-13T23:46:21.558Z,101216.84
2022-10-13T23:48:45.199Z,101218.66
2022-10-13T23:51:10.746Z,101227.78
2022-10-13T23:53:36.579Z,101230.97
2022-10-13T23:56:03.031Z,101226.25
2022-10-13T23:58:26.879Z,101225.59
